createdAt,value
2019-02-07T00:00:27.595Z,979.9
2019-02-07T00:01:29.244Z,979.8
2019-02-07T00:02:32.169Z,979.8
2019-02-07T00:03:33.967Z,979.9
2019-02-07T00:04:35.918Z,979.8
2019-02-07T00:05:37.566Z,979.8
2019-02-07T00:06:41.499Z,979.9
2019-02-07T00:07:43.106Z,979.8
2019-02-07T00:08:44.656Z,979.9
2019-02-07T00:09:46.191Z,979.9
2019-02-07T00:10:47.736Z,979.8
2019-02-07T00:11:49.238Z,979.8
2019-02-07T00:12:51.234Z,979.8
2019-02-07T00:13:53.176Z,979.8
2019-02-07T00:14:55.132Z,979.8
2019-02-07T00:15:56.985Z,979.7
2019-02-07T00:16:58.534Z,979.8
2019-02-07T00:18:00.178Z,979.8
2019-02-07T00:19:01.821Z,979.7
2019-02-07T00:20:03.377Z,979.8
2019-02-07T00:21:05.310Z,979.7
2019-02-07T00:22:06.738Z,979.7
2019-02-07T00:23:08.523Z,979.7
2019-02-07T00:24:10.348Z,979.7
2019-02-07T00:25:11.798Z,979.7
2019-02-07T00:26:13.351Z,979.7
2019-02-07T00:27:15.190Z,979.7
2019-02-07T00:28:16.658Z,979.7
2019-02-07T00:29:18.174Z,979.6
2019-02-07T00:30:19.712Z,979.6
2019-02-07T00:31:23.608Z,979.7
2019-02-07T00:32:25.057Z,979.6
2019-02-07T00:33:26.994Z,979.6
2019-02-07T00:34:28.744Z,979.6
2019-02-07T00:35:30.296Z,979.4
2019-02-07T00:36:31.930Z,979.5
2019-02-07T00:37:36.446Z,979.5
2019-02-07T00:38:40.054Z,979.5
2019-02-07T00:39:41.891Z,979.5
2019-02-07T00:40:44.550Z,979.4
2019-02-07T00:41:46.096Z,979.4
2019-02-07T00:42:47.534Z,979.3
2019-02-07T00:43:49.094Z,979.3
2019-02-07T00:44:53.182Z,979.4
2019-02-07T00:45:58.014Z,979.4
2019-02-07T00:46:59.734Z,979
2019-02-07T00:48:01.520Z,979.4
2019-02-07T00:49:03.207Z,979.3
2019-02-07T00:50:04.909Z,979.4
2019-02-07T00:51:06.440Z,979.4
2019-02-07T00:52:09.336Z,979.4
2019-02-07T00:53:10.858Z,979.4
2019-02-07T00:54:12.282Z,979.4
2019-02-07T00:55:14.248Z,979.3
2019-02-07T00:56:15.994Z,979.3
2019-02-07T00:57:17.420Z,979.3
2019-02-07T00:58:18.854Z,979.3
2019-02-07T00:59:20.426Z,979.3
2019-02-07T01:00:22.068Z,979.3
2019-02-07T01:01:24.836Z,979.3
2019-02-07T01:02:26.286Z,979.2
2019-02-07T01:03:27.924Z,979.2
2019-02-07T01:04:31.625Z,979.2
2019-02-07T01:05:33.565Z,979
2019-02-07T01:06:35.312Z,979.2
2019-02-07T01:07:39.220Z,979.1
2019-02-07T01:08:40.854Z,979.1
2019-02-07T01:09:42.288Z,979
2019-02-07T01:10:43.842Z,979.1
2019-02-07T01:11:45.387Z,979.1
2019-02-07T01:12:47.226Z,979
2019-02-07T01:13:48.776Z,979
2019-02-07T01:14:55.252Z,979
2019-02-07T01:16:03.032Z,978.9
2019-02-07T01:17:04.763Z,978.9
2019-02-07T01:18:06.314Z,978.9
2019-02-07T01:19:07.859Z,978.9
2019-02-07T01:20:09.519Z,978.8
2019-02-07T01:21:11.142Z,978.8
2019-02-07T01:22:12.587Z,978.9
2019-02-07T01:23:14.125Z,978.9
2019-02-07T01:24:16.090Z,978.8
2019-02-07T01:25:17.525Z,978.8
2019-02-07T01:26:19.328Z,978.8
2019-02-07T01:27:21.543Z,978.8
2019-02-07T01:28:25.963Z,978.8
2019-02-07T01:29:27.603Z,978.8
2019-02-07T01:30:29.237Z,978.8
2019-02-07T01:31:30.768Z,978.8
2019-02-07T01:32:32.314Z,978.7
2019-02-07T01:33:33.854Z,978.7
2019-02-07T01:34:35.499Z,978.7
2019-02-07T01:35:37.143Z,978.7
2019-02-07T01:36:38.685Z,978.8
2019-02-07T01:37:40.654Z,978.7
2019-02-07T01:38:42.841Z,978.6
2019-02-07T01:39:47.118Z,978.7
2019-02-07T01:40:48.755Z,978.7
2019-02-07T01:41:50.305Z,978.7
2019-02-07T01:42:51.939Z,978.7
2019-02-07T01:43:53.383Z,978.7
2019-02-07T01:44:54.923Z,978.7
2019-02-07T01:45:56.367Z,978.7
2019-02-07T01:46:58.217Z,978.7
2019-02-07T01:47:59.763Z,978.8
2019-02-07T01:49:02.367Z,978.8
2019-02-07T01:50:03.867Z,978.8
2019-02-07T01:51:05.415Z,978.8
2019-02-07T01:52:06.957Z,978.8
2019-02-07T01:53:08.385Z,978.8
2019-02-07T01:54:09.847Z,978.7
2019-02-07T01:55:11.691Z,978.6
2019-02-07T01:56:13.327Z,978.6
2019-02-07T01:57:15.381Z,978.6
2019-02-07T01:58:17.147Z,978.6
2019-02-07T01:59:18.677Z,978.6
2019-02-07T02:00:20.099Z,978.6
2019-02-07T02:01:21.552Z,978.5
2019-02-07T02:02:23.110Z,978.5
2019-02-07T02:03:24.545Z,978.6
2019-02-07T02:04:26.087Z,978.5
2019-02-07T02:05:27.733Z,978.5
2019-02-07T02:06:29.457Z,978.5
2019-02-07T02:07:31.015Z,978.4
2019-02-07T02:08:32.516Z,978.3
2019-02-07T02:09:33.935Z,978.3
2019-02-07T02:10:35.439Z,978.2
2019-02-07T02:11:36.990Z,978.1
2019-02-07T02:12:38.633Z,978.1
2019-02-07T02:13:40.169Z,978.1
2019-02-07T02:14:41.815Z,978.1
2019-02-07T02:15:43.255Z,978.1
2019-02-07T02:16:46.130Z,978
2019-02-07T02:17:47.979Z,978.1
2019-02-07T02:18:49.843Z,978
2019-02-07T02:19:51.371Z,978
2019-02-07T02:20:52.813Z,977.9
2019-02-07T02:21:54.221Z,977.9
2019-02-07T02:22:55.890Z,977.8
2019-02-07T02:23:57.441Z,977.8
2019-02-07T02:24:58.863Z,977.8
2019-02-07T02:26:00.630Z,977.7
2019-02-07T02:27:02.281Z,977.8
2019-02-07T02:28:04.133Z,977.8
2019-02-07T02:29:05.667Z,977.8
2019-02-07T02:30:07.213Z,977.8
2019-02-07T02:31:09.957Z,977.9
2019-02-07T02:32:11.427Z,977.8
2019-02-07T02:33:13.067Z,977.9
2019-02-07T02:34:14.623Z,977.8
2019-02-07T02:35:16.131Z,977.8
2019-02-07T02:36:17.890Z,977.8
2019-02-07T02:37:21.617Z,977.8
2019-02-07T02:38:23.243Z,977.7
2019-02-07T02:39:24.783Z,977.5
2019-02-07T02:40:26.424Z,977.6
2019-02-07T02:41:27.996Z,977.6
2019-02-07T02:42:29.506Z,977.6
2019-02-07T02:43:31.154Z,977.6
2019-02-07T02:44:32.591Z,977.6
2019-02-07T02:45:38.453Z,977.6
2019-02-07T02:46:40.396Z,977.5
2019-02-07T02:47:42.140Z,977.5
2019-02-07T02:48:43.889Z,977.5
2019-02-07T02:49:45.441Z,977.4
2019-02-07T02:50:46.974Z,977.3
2019-02-07T02:51:48.513Z,977.3
2019-02-07T02:52:50.051Z,977.3
2019-02-07T02:53:51.707Z,977.2
2019-02-07T02:54:53.145Z,977.1
2019-02-07T02:55:54.907Z,977.1
2019-02-07T02:56:56.659Z,977
2019-02-07T02:57:58.285Z,977
2019-02-07T02:58:59.931Z,977.1
2019-02-07T03:00:01.368Z,976.9
2019-02-07T03:01:04.095Z,977
2019-02-07T03:02:05.687Z,977.1
2019-02-07T03:03:07.087Z,977.1
2019-02-07T03:04:08.937Z,977.2
2019-02-07T03:05:10.426Z,977.2
2019-02-07T03:06:12.266Z,977.1
2019-02-07T03:07:14.117Z,977.2
2019-02-07T03:08:15.762Z,977.1
2019-02-07T03:09:17.301Z,977.2
2019-02-07T03:10:18.749Z,977.2
2019-02-07T03:11:20.190Z,977.2
2019-02-07T03:12:21.626Z,977.2
2019-02-07T03:13:23.372Z,977.2
2019-02-07T03:14:26.250Z,977.1
2019-02-07T03:15:27.896Z,977.1
2019-02-07T03:16:29.843Z,977.1
2019-02-07T03:17:31.697Z,977.1
2019-02-07T03:18:33.240Z,977.1
2019-02-07T03:19:34.789Z,977
2019-02-07T03:20:36.327Z,977
2019-02-07T03:21:37.778Z,977
2019-02-07T03:22:39.414Z,977
2019-02-07T03:23:41.055Z,977
2019-02-07T03:24:42.602Z,976.9
2019-02-07T03:25:44.488Z,976.8
2019-02-07T03:26:48.656Z,976.8
2019-02-07T03:27:50.400Z,976.6
2019-02-07T03:28:51.832Z,976.7
2019-02-07T03:29:53.482Z,976.8
2019-02-07T03:30:55.041Z,976.7
2019-02-07T03:31:56.931Z,976.8
2019-02-07T03:32:58.420Z,976.9
2019-02-07T03:33:59.866Z,976.8
2019-02-07T03:35:01.710Z,976.8
2019-02-07T03:36:03.452Z,976.7
2019-02-07T03:37:05.314Z,976.7
2019-02-07T03:38:06.957Z,976.6
2019-02-07T03:39:08.723Z,976.6
2019-02-07T03:40:10.243Z,976.4
2019-02-07T03:41:11.792Z,976.3
2019-02-07T03:42:15.561Z,976.3
2019-02-07T03:43:17.231Z,976.4
2019-02-07T03:44:18.683Z,976.4
2019-02-07T03:45:21.337Z,976.4
2019-02-07T03:46:23.178Z,976.3
2019-02-07T03:47:24.878Z,976.4
2019-02-07T03:48:26.690Z,976.4
2019-02-07T03:49:28.339Z,976.4
2019-02-07T03:50:30.181Z,976.3
2019-02-07T03:51:31.730Z,976.4
2019-02-07T03:52:33.381Z,976.4
2019-02-07T03:53:35.018Z,976.2
2019-02-07T03:54:36.658Z,976.3
2019-02-07T03:55:38.299Z,976.4
2019-02-07T03:56:40.260Z,976.4
2019-02-07T03:57:42.319Z,976.3
2019-02-07T03:58:43.955Z,976.4
2019-02-07T03:59:45.437Z,976.3
2019-02-07T04:00:49.396Z,976.3
2019-02-07T04:01:50.937Z,976.4
2019-02-07T04:02:52.583Z,976.4
2019-02-07T04:03:53.994Z,976.5
2019-02-07T04:04:55.566Z,976.4
2019-02-07T04:05:57.116Z,976.5
2019-02-07T04:06:59.064Z,976.6
2019-02-07T04:08:00.922Z,976.5
2019-02-07T04:09:02.556Z,976.5
2019-02-07T04:10:04.648Z,976.5
2019-02-07T04:11:06.252Z,976.3
2019-02-07T04:12:07.691Z,976.5
2019-02-07T04:13:09.242Z,976.4
2019-02-07T04:14:10.781Z,976.5
2019-02-07T04:15:12.327Z,976.5
2019-02-07T04:16:16.372Z,976.4
2019-02-07T04:17:18.293Z,976.4
2019-02-07T04:18:20.331Z,976.4
2019-02-07T04:19:21.991Z,976.4
2019-02-07T04:20:23.638Z,976.4
2019-02-07T04:21:25.415Z,976.3
2019-02-07T04:22:27.025Z,976.3
2019-02-07T04:23:28.683Z,976.3
2019-02-07T04:24:30.198Z,976.3
2019-02-07T04:25:31.758Z,976.2
2019-02-07T04:26:33.608Z,976.2
2019-02-07T04:27:35.210Z,976.2
2019-02-07T04:28:36.680Z,976.2
2019-02-07T04:29:38.135Z,976.2
2019-02-07T04:30:39.593Z,976.2
2019-02-07T04:31:41.219Z,976
2019-02-07T04:32:42.860Z,976.1
2019-02-07T04:33:44.290Z,976.2
2019-02-07T04:34:45.749Z,976.2
2019-02-07T04:35:47.197Z,976.2
2019-02-07T04:36:49.239Z,976.2
2019-02-07T04:37:51.341Z,976.2
2019-02-07T04:38:52.929Z,976.2
2019-02-07T04:39:54.981Z,976.2
2019-02-07T04:40:56.424Z,976.2
2019-02-07T04:41:57.931Z,976.3
2019-02-07T04:42:59.405Z,976.2
2019-02-07T04:44:01.222Z,976.2
2019-02-07T04:45:02.720Z,976.2
2019-02-07T04:46:04.339Z,976.2
2019-02-07T04:47:05.889Z,976.1
2019-02-07T04:48:07.743Z,976.1
2019-02-07T04:49:09.279Z,976.1
2019-02-07T04:50:10.929Z,976.1
2019-02-07T04:51:12.370Z,976.1
2019-02-07T04:52:14.127Z,976.2
2019-02-07T04:53:15.956Z,976.1
2019-02-07T04:54:17.513Z,976.2
2019-02-07T04:55:19.055Z,976.1
2019-02-07T04:56:21.114Z,976.1
2019-02-07T04:57:22.969Z,976.2
2019-02-07T04:58:24.495Z,976.2
2019-02-07T04:59:25.954Z,976.2
2019-02-07T05:00:27.589Z,976.2
2019-02-07T05:01:29.227Z,976.1
2019-02-07T05:02:30.695Z,976.1
2019-02-07T05:03:32.216Z,976.1
2019-02-07T05:04:33.747Z,976.1
2019-02-07T05:05:38.269Z,976.1
2019-02-07T05:06:39.911Z,976
2019-02-07T05:07:42.377Z,975.9
2019-02-07T05:08:44.033Z,975.9
2019-02-07T05:09:45.603Z,975.9
2019-02-07T05:10:47.049Z,975.8
2019-02-07T05:11:48.956Z,975.8
2019-02-07T05:12:50.601Z,975.8
2019-02-07T05:13:52.047Z,975.8
2019-02-07T05:14:53.483Z,975.7
2019-02-07T05:15:55.341Z,975.8
2019-02-07T05:16:57.089Z,975.7
2019-02-07T05:17:58.633Z,975.8
2019-02-07T05:19:00.271Z,975.7
2019-02-07T05:20:01.713Z,975.7
2019-02-07T05:21:03.138Z,975.7
2019-02-07T05:22:04.577Z,975.8
2019-02-07T05:23:06.239Z,975.7
2019-02-07T05:24:07.665Z,975.6
2019-02-07T05:25:09.119Z,975.6
2019-02-07T05:26:10.767Z,975.7
2019-02-07T05:27:12.499Z,975.5
2019-02-07T05:28:14.162Z,975.5
2019-02-07T05:29:15.933Z,975.5
2019-02-07T05:30:17.551Z,975.6
2019-02-07T05:31:18.968Z,975.5
2019-02-07T05:32:20.385Z,975.5
2019-02-07T05:33:22.095Z,975.5
2019-02-07T05:34:23.729Z,975.3
2019-02-07T05:35:25.782Z,975.4
2019-02-07T05:36:27.535Z,975.3
2019-02-07T05:37:29.285Z,975.3
2019-02-07T05:38:31.135Z,975.3
2019-02-07T05:39:32.647Z,975.4
2019-02-07T05:40:34.194Z,975.3
2019-02-07T05:41:35.621Z,975.3
2019-02-07T05:42:37.588Z,975.2
2019-02-07T05:43:39.244Z,975.2
2019-02-07T05:44:40.838Z,975.2
2019-02-07T05:45:42.291Z,975
2019-02-07T05:46:51.856Z,975
2019-02-07T05:47:53.809Z,975.1
2019-02-07T05:48:55.352Z,975.1
2019-02-07T05:49:57.121Z,975.1
2019-02-07T05:50:58.743Z,975.1
2019-02-07T05:52:00.291Z,975.1
2019-02-07T05:53:01.937Z,975.1
2019-02-07T05:54:03.485Z,975
2019-02-07T05:55:05.026Z,974.9
2019-02-07T05:56:06.975Z,974.9
2019-02-07T05:57:10.562Z,975
2019-02-07T05:58:12.204Z,974.9
2019-02-07T05:59:13.744Z,974.9
2019-02-07T06:00:15.191Z,974.9
2019-02-07T06:01:16.798Z,974.9
2019-02-07T06:02:18.367Z,975
2019-02-07T06:03:19.802Z,974.9
2019-02-07T06:04:24.548Z,974.9
2019-02-07T06:05:26.174Z,974.9
2019-02-07T06:06:27.835Z,974.9
2019-02-07T06:07:29.878Z,974.9
2019-02-07T06:08:31.423Z,974.9
2019-02-07T06:09:33.069Z,974.9
2019-02-07T06:10:34.622Z,974.9
2019-02-07T06:11:36.174Z,974.9
2019-02-07T06:12:37.909Z,974.9
2019-02-07T06:13:39.346Z,974.9
2019-02-07T06:14:40.882Z,974.9
2019-02-07T06:15:43.522Z,974.9
2019-02-07T06:16:47.764Z,974.9
2019-02-07T06:17:49.716Z,974.9
2019-02-07T06:18:55.638Z,975
2019-02-07T06:19:57.093Z,974.9
2019-02-07T06:20:58.544Z,974.6
2019-02-07T06:22:00.377Z,974.8
2019-02-07T06:23:02.235Z,974.8
2019-02-07T06:24:03.786Z,974.8
2019-02-07T06:25:05.433Z,974.7
2019-02-07T06:26:06.876Z,974.8
2019-02-07T06:27:08.720Z,974.9
2019-02-07T06:28:10.358Z,975
2019-02-07T06:29:12.724Z,975.1
2019-02-07T06:30:14.259Z,975.1
2019-02-07T06:31:15.822Z,975.2
2019-02-07T06:32:17.237Z,975.1
2019-02-07T06:33:18.800Z,975.1
2019-02-07T06:34:30.362Z,975
2019-02-07T06:35:31.954Z,974.9
2019-02-07T06:36:33.470Z,974.9
2019-02-07T06:37:35.102Z,974.9
2019-02-07T06:38:36.954Z,974.8
2019-02-07T06:39:38.904Z,974.9
2019-02-07T06:40:40.634Z,975
2019-02-07T06:41:44.866Z,974.9
2019-02-07T06:42:46.512Z,975
2019-02-07T06:43:47.943Z,975
2019-02-07T06:44:49.484Z,974.9
2019-02-07T06:45:51.027Z,974.9
2019-02-07T06:46:52.467Z,975
2019-02-07T06:47:53.903Z,975
2019-02-07T06:48:57.166Z,974.9
2019-02-07T06:50:01.062Z,974.9
2019-02-07T06:51:03.301Z,974.9
2019-02-07T06:52:04.779Z,975
2019-02-07T06:53:06.536Z,975
2019-02-07T06:54:08.080Z,975
2019-02-07T06:55:09.510Z,974.9
2019-02-07T06:56:13.217Z,974.8
2019-02-07T06:57:17.678Z,974.9
2019-02-07T06:58:19.384Z,974.9
2019-02-07T06:59:20.854Z,974.7
2019-02-07T07:00:22.762Z,974.8
2019-02-07T07:01:24.826Z,974.8
2019-02-07T07:02:26.471Z,974.8
2019-02-07T07:03:28.116Z,974.8
2019-02-07T07:04:31.549Z,974.8
2019-02-07T07:05:33.050Z,974.7
2019-02-07T07:06:34.526Z,974.7
2019-02-07T07:07:36.144Z,974.7
2019-02-07T07:08:37.779Z,974.7
2019-02-07T07:09:39.305Z,974.7
2019-02-07T07:10:41.052Z,974.7
2019-02-07T07:11:43.011Z,974.7
2019-02-07T07:12:44.453Z,974.7
2019-02-07T07:13:45.999Z,974.7
2019-02-07T07:14:47.641Z,974.6
2019-02-07T07:15:49.294Z,974.7
2019-02-07T07:16:51.507Z,974.7
2019-02-07T07:17:52.985Z,974.7
2019-02-07T07:18:54.425Z,974.7
2019-02-07T07:19:55.864Z,974.7
2019-02-07T07:21:00.397Z,974.7
2019-02-07T07:22:02.331Z,974.6
2019-02-07T07:23:03.773Z,974.5
2019-02-07T07:24:06.344Z,974.5
2019-02-07T07:25:07.781Z,974.4
2019-02-07T07:26:10.328Z,974.5
2019-02-07T07:27:11.993Z,974.5
2019-02-07T07:28:14.814Z,974.5
2019-02-07T07:29:16.263Z,974.5
2019-02-07T07:30:20.863Z,974.5
2019-02-07T07:31:23.337Z,974.5
2019-02-07T07:32:25.191Z,974.5
2019-02-07T07:33:27.089Z,974.5
2019-02-07T07:34:32.983Z,974.5
2019-02-07T07:35:34.493Z,974.6
2019-02-07T07:36:36.291Z,974.5
2019-02-07T07:37:40.118Z,974.5
2019-02-07T07:38:41.557Z,974.5
2019-02-07T07:39:43.011Z,974.5
2019-02-07T07:40:45.563Z,974.5
2019-02-07T07:41:47.029Z,974.3
2019-02-07T07:42:48.967Z,974.5
2019-02-07T07:43:50.417Z,974.4
2019-02-07T07:44:52.149Z,974.5
2019-02-07T07:45:53.683Z,974.4
2019-02-07T07:46:55.106Z,974.4
2019-02-07T07:47:56.599Z,974.4
2019-02-07T07:48:58.323Z,974.4
2019-02-07T07:49:59.969Z,974.4
2019-02-07T07:51:02.642Z,974.4
2019-02-07T07:52:04.260Z,974.3
2019-02-07T07:53:05.951Z,974.3
2019-02-07T07:54:07.767Z,974.4
2019-02-07T07:55:09.421Z,974.3
2019-02-07T07:56:10.867Z,974.3
2019-02-07T07:57:12.403Z,974.2
2019-02-07T07:58:15.431Z,974.2
2019-02-07T07:59:17.027Z,974.1
2019-02-07T08:00:20.111Z,974.2
2019-02-07T08:01:22.152Z,974.2
2019-02-07T08:02:23.592Z,974.1
2019-02-07T08:03:25.983Z,974.1
2019-02-07T08:04:28.917Z,974
2019-02-07T08:05:30.461Z,974
2019-02-07T08:06:31.909Z,974
2019-02-07T08:07:33.569Z,974.1
2019-02-07T08:08:35.020Z,974
2019-02-07T08:09:36.468Z,974
2019-02-07T08:10:37.883Z,973.9
2019-02-07T08:11:40.207Z,974
2019-02-07T08:12:41.797Z,973.9
2019-02-07T08:13:43.560Z,973.8
2019-02-07T08:14:46.329Z,973.9
2019-02-07T08:15:47.778Z,973.9
2019-02-07T08:16:55.467Z,973.8
2019-02-07T08:17:58.267Z,973.9
2019-02-07T08:19:00.137Z,973.9
2019-02-07T08:20:10.145Z,973.9
2019-02-07T08:21:11.977Z,973.9
2019-02-07T08:22:13.515Z,973.9
2019-02-07T08:23:14.986Z,973.9
2019-02-07T08:24:16.451Z,973.9
2019-02-07T08:25:17.926Z,973.9
2019-02-07T08:26:19.925Z,973.9
2019-02-07T08:27:21.653Z,973.8
2019-02-07T08:28:23.264Z,973.9
2019-02-07T08:29:24.763Z,973.8
2019-02-07T08:30:37.051Z,973.8
2019-02-07T08:31:39.507Z,973.9
2019-02-07T08:32:40.948Z,973.9
2019-02-07T08:33:42.419Z,973.8
2019-02-07T08:34:43.895Z,973.8
2019-02-07T08:35:45.541Z,973.9
2019-02-07T08:36:46.983Z,973.9
2019-02-07T08:37:48.723Z,973.9
2019-02-07T08:38:51.120Z,973.9
2019-02-07T08:39:52.817Z,973.9
2019-02-07T08:40:57.154Z,973.9
2019-02-07T08:41:59.967Z,973.9
2019-02-07T08:43:02.687Z,973.8
2019-02-07T08:44:06.390Z,974
2019-02-07T08:45:07.859Z,973.9
2019-02-07T08:46:09.849Z,973.9
2019-02-07T08:47:11.306Z,973.9
2019-02-07T08:48:12.767Z,974
2019-02-07T08:49:14.977Z,974
2019-02-07T08:50:16.765Z,974
2019-02-07T08:51:18.258Z,974
2019-02-07T08:52:19.768Z,974
2019-02-07T08:53:21.408Z,974
2019-02-07T08:54:22.944Z,974
2019-02-07T08:55:24.678Z,974
2019-02-07T08:56:27.085Z,973.9
2019-02-07T08:57:29.420Z,973.9
2019-02-07T08:58:31.369Z,973.9
2019-02-07T08:59:32.995Z,973.9
2019-02-07T09:00:34.770Z,973.9
2019-02-07T09:01:36.290Z,973.8
2019-02-07T09:02:37.850Z,973.9
2019-02-07T09:03:39.297Z,973.8
2019-02-07T09:04:40.818Z,973.8
2019-02-07T09:05:42.460Z,973.7
2019-02-07T09:06:44.004Z,973.8
2019-02-07T09:07:45.651Z,973.6
2019-02-07T09:08:47.476Z,973.6
2019-02-07T09:09:52.043Z,973.7
2019-02-07T09:10:53.502Z,973.7
2019-02-07T09:11:55.009Z,973.6
2019-02-07T09:12:56.538Z,973.6
2019-02-07T09:13:58.182Z,973.6
2019-02-07T09:14:59.939Z,973.5
2019-02-07T09:16:02.659Z,973.6
2019-02-07T09:17:04.250Z,973.6
2019-02-07T09:18:13.322Z,973.5
2019-02-07T09:19:14.958Z,973.5
2019-02-07T09:20:16.858Z,973.5
2019-02-07T09:21:18.703Z,973.4
2019-02-07T09:22:20.150Z,973.4
2019-02-07T09:23:21.898Z,973.4
2019-02-07T09:24:23.434Z,973.5
2019-02-07T09:25:26.129Z,973.5
2019-02-07T09:26:27.697Z,973.5
2019-02-07T09:27:29.500Z,973.6
2019-02-07T09:28:32.994Z,973.4
2019-02-07T09:29:34.636Z,973.5
2019-02-07T09:30:36.702Z,973.4
2019-02-07T09:31:40.506Z,973.4
2019-02-07T09:32:42.439Z,973.5
2019-02-07T09:33:46.252Z,973.4
2019-02-07T09:34:47.782Z,973.4
2019-02-07T09:35:49.391Z,973.4
2019-02-07T09:36:51.610Z,973.3
2019-02-07T09:37:53.427Z,973.4
2019-02-07T09:38:54.974Z,973.3
2019-02-07T09:39:56.464Z,973.3
2019-02-07T09:41:00.910Z,973.3
2019-02-07T09:42:02.904Z,973.3
2019-02-07T09:43:05.004Z,973.3
2019-02-07T09:44:06.451Z,973.2
2019-02-07T09:45:08.230Z,973.2
2019-02-07T09:46:11.244Z,973.2
2019-02-07T09:47:12.941Z,973.3
2019-02-07T09:48:22.579Z,973.2
2019-02-07T09:49:26.514Z,973.3
2019-02-07T09:50:30.440Z,973.2
2019-02-07T09:51:32.440Z,973.2
2019-02-07T09:52:34.266Z,973.1
2019-02-07T09:53:36.139Z,973.2
2019-02-07T09:54:37.772Z,973.2
2019-02-07T09:55:41.347Z,973.2
2019-02-07T09:56:42.783Z,973.2
2019-02-07T09:57:47.984Z,973.3
2019-02-07T09:58:49.484Z,973.2
2019-02-07T09:59:50.942Z,973.2
2019-02-07T10:00:52.458Z,973.2
2019-02-07T10:01:54.002Z,973.2
2019-02-07T10:02:55.658Z,973.2
2019-02-07T10:03:57.301Z,973.3
2019-02-07T10:04:59.248Z,973.3
2019-02-07T10:06:01.306Z,973.4
2019-02-07T10:07:03.116Z,973.4
2019-02-07T10:08:04.722Z,973.3
2019-02-07T10:09:06.334Z,973.3
2019-02-07T10:10:07.786Z,973.3
2019-02-07T10:11:09.210Z,973.4
2019-02-07T10:12:10.681Z,973.4
2019-02-07T10:13:12.447Z,973.4
2019-02-07T10:14:14.363Z,973.5
2019-02-07T10:15:18.210Z,973.4
2019-02-07T10:16:23.461Z,973.5
2019-02-07T10:17:25.270Z,973.3
2019-02-07T10:18:36.253Z,973.4
2019-02-07T10:19:41.745Z,973.4
2019-02-07T10:21:02.465Z,973.4
2019-02-07T10:23:21.096Z,973.5
2019-02-07T10:24:23.317Z,973.3
2019-02-07T10:25:24.887Z,973.4
2019-02-07T10:26:26.337Z,973.5
2019-02-07T10:27:27.974Z,973.6
2019-02-07T10:28:29.420Z,973.6
2019-02-07T10:29:30.939Z,973.5
2019-02-07T10:30:32.419Z,973.6
2019-02-07T10:31:35.151Z,973.5
2019-02-07T10:32:38.253Z,973.4
2019-02-07T10:33:41.633Z,973.4
2019-02-07T10:34:43.475Z,973.4
2019-02-07T10:35:44.918Z,973.4
2019-02-07T10:36:46.571Z,973.4
2019-02-07T10:37:48.211Z,973.4
2019-02-07T10:38:50.552Z,973.4
2019-02-07T10:39:58.901Z,973.4
2019-02-07T10:41:00.625Z,973.4
2019-02-07T10:42:02.271Z,973.3
2019-02-07T10:43:03.915Z,973.4
2019-02-07T10:44:11.315Z,973.4
2019-02-07T10:45:15.457Z,973.4
2019-02-07T10:46:17.192Z,973.4
2019-02-07T10:47:18.625Z,973.3
2019-02-07T10:48:20.019Z,973.4
2019-02-07T10:49:22.483Z,973.4
2019-02-07T10:50:25.527Z,973.4
2019-02-07T10:51:29.795Z,973.4
2019-02-07T10:52:31.211Z,973.4
2019-02-07T10:53:32.749Z,973.3
2019-02-07T10:54:34.195Z,973.2
2019-02-07T10:55:36.142Z,973.2
2019-02-07T10:56:46.947Z,973.3
2019-02-07T10:57:50.067Z,973.2
2019-02-07T10:58:52.263Z,973.2
2019-02-07T10:59:53.688Z,973.2
2019-02-07T11:00:55.303Z,973.2
2019-02-07T11:01:56.755Z,973.1
2019-02-07T11:03:01.127Z,973.1
2019-02-07T11:04:03.844Z,973
2019-02-07T11:05:06.465Z,973
2019-02-07T11:06:08.143Z,973
2019-02-07T11:07:11.444Z,973
2019-02-07T11:08:13.436Z,973.2
2019-02-07T11:09:23.925Z,973.2
2019-02-07T11:10:29.494Z,973.1
2019-02-07T11:11:33.170Z,973
2019-02-07T11:12:35.691Z,973.1
2019-02-07T11:13:37.093Z,973.1
2019-02-07T11:14:38.547Z,973.1
2019-02-07T11:15:40.035Z,973.1
2019-02-07T11:16:42.229Z,973
2019-02-07T11:17:43.667Z,973.1
2019-02-07T11:18:56.057Z,973
2019-02-07T11:19:58.803Z,972.9
2019-02-07T11:21:00.264Z,973.1
2019-02-07T11:22:01.852Z,973
2019-02-07T11:23:03.677Z,973.1
2019-02-07T11:24:05.459Z,973
2019-02-07T11:25:06.930Z,973
2019-02-07T11:26:08.363Z,973.1
2019-02-07T11:27:12.280Z,973
2019-02-07T11:28:13.733Z,973
2019-02-07T11:29:17.885Z,973
2019-02-07T11:30:19.315Z,973
2019-02-07T11:31:21.751Z,972.9
2019-02-07T11:32:26.054Z,973
2019-02-07T11:33:38.116Z,972.9
2019-02-07T11:34:39.566Z,972.9
2019-02-07T11:35:43.539Z,972.9
2019-02-07T11:36:54.926Z,972.8
2019-02-07T11:37:56.802Z,972.9
2019-02-07T11:38:58.577Z,972.8
2019-02-07T11:40:00.308Z,972.7
2019-02-07T11:41:01.842Z,972.6
2019-02-07T11:42:03.298Z,972.8
2019-02-07T11:43:04.789Z,972.8
2019-02-07T11:44:08.510Z,972.8
2019-02-07T11:45:10.023Z,972.7
2019-02-07T11:46:11.472Z,972.8
2019-02-07T11:47:12.997Z,972.8
2019-02-07T11:48:14.842Z,972.8
2019-02-07T11:49:16.621Z,972.8
2019-02-07T11:50:18.317Z,972.8
2019-02-07T11:51:20.231Z,972.8
2019-02-07T11:52:22.258Z,972.8
2019-02-07T11:53:23.743Z,972.7
2019-02-07T11:54:25.177Z,972.8
2019-02-07T11:55:28.468Z,972.7
2019-02-07T11:56:29.907Z,972.8
2019-02-07T11:57:31.390Z,972.9
2019-02-07T11:58:33.291Z,973
2019-02-07T11:59:35.606Z,972.9
2019-02-07T12:00:37.044Z,972.9
2019-02-07T12:01:40.577Z,972.9
2019-02-07T12:02:42.037Z,972.9
2019-02-07T12:03:43.562Z,972.9
2019-02-07T12:04:44.984Z,972.9
2019-02-07T12:05:46.431Z,972.9
2019-02-07T12:06:47.940Z,972.9
2019-02-07T12:07:49.624Z,972.9
2019-02-07T12:08:51.136Z,973
2019-02-07T12:09:52.888Z,972.9
2019-02-07T12:10:54.315Z,972.9
2019-02-07T12:11:55.757Z,972.9
2019-02-07T12:12:59.448Z,972.9
2019-02-07T12:14:01.322Z,972.8
2019-02-07T12:15:03.320Z,972.8
2019-02-07T12:16:04.764Z,972.8
2019-02-07T12:17:08.915Z,972.8
2019-02-07T12:18:15.886Z,972.9
2019-02-07T12:19:19.202Z,972.9
2019-02-07T12:20:23.708Z,972.8
2019-02-07T12:21:25.422Z,972.8
2019-02-07T12:22:26.844Z,972.9
2019-02-07T12:23:30.695Z,972.9
2019-02-07T12:24:32.710Z,972.9
2019-02-07T12:25:34.524Z,972.9
2019-02-07T12:26:37.252Z,972.9
2019-02-07T12:27:38.708Z,972.9
2019-02-07T12:28:40.463Z,972.9
2019-02-07T12:29:42.450Z,972.9
2019-02-07T12:30:45.464Z,972.9
2019-02-07T12:31:48.212Z,972.8
2019-02-07T12:32:51.024Z,972.8
2019-02-07T12:33:52.462Z,972.8
2019-02-07T12:34:54.327Z,972.8
2019-02-07T12:35:57.970Z,972.9
2019-02-07T12:36:59.465Z,972.9
2019-02-07T12:38:00.924Z,972.9
2019-02-07T12:39:02.369Z,972.9
2019-02-07T12:40:04.139Z,972.8
2019-02-07T12:41:06.840Z,972.8
2019-02-07T12:42:08.312Z,972.9
2019-02-07T12:43:10.058Z,972.8
2019-02-07T12:44:11.589Z,972.9
2019-02-07T12:45:13.108Z,972.9
2019-02-07T12:46:20.652Z,972.8
2019-02-07T12:47:22.464Z,972.9
2019-02-07T12:48:38.352Z,972.8
2019-02-07T12:49:40.298Z,972.7
2019-02-07T12:50:41.933Z,972.7
2019-02-07T12:51:44.445Z,972.7
2019-02-07T12:52:45.902Z,972.8
2019-02-07T12:53:47.392Z,972.7
2019-02-07T12:54:49.575Z,972.8
2019-02-07T12:55:53.453Z,972.8
2019-02-07T12:56:56.530Z,972.7
2019-02-07T12:57:58.178Z,972.7
2019-02-07T12:58:59.824Z,972.6
2019-02-07T13:00:01.473Z,972.8
2019-02-07T13:01:07.043Z,972.9
2019-02-07T13:02:08.512Z,972.8
2019-02-07T13:03:12.682Z,972.8
2019-02-07T13:04:16.603Z,972.7
2019-02-07T13:05:18.072Z,972.7
2019-02-07T13:06:19.739Z,972.7
2019-02-07T13:07:24.764Z,972.6
2019-02-07T13:08:26.747Z,972.7
2019-02-07T13:09:30.892Z,972.6
2019-02-07T13:10:32.562Z,972.6
2019-02-07T13:11:34.223Z,972.6
2019-02-07T13:12:38.678Z,972.7
2019-02-07T13:13:40.170Z,972.7
2019-02-07T13:14:41.817Z,972.6
2019-02-07T13:15:43.487Z,972.6
2019-02-07T13:16:45.645Z,972.6
2019-02-07T13:17:51.959Z,972.7
2019-02-07T13:18:54.344Z,972.7
2019-02-07T13:19:55.954Z,972.7
2019-02-07T13:20:57.821Z,972.7
2019-02-07T13:22:00.616Z,972.6
2019-02-07T13:23:04.680Z,972.7
2019-02-07T13:24:09.351Z,972.7
2019-02-07T13:25:10.938Z,972.7
2019-02-07T13:26:13.126Z,972.7
2019-02-07T13:27:14.765Z,972.7